sensor_id;sensor_type;location;lat;lon;timestamp;temperature;humidity
52675;DHT22;38569;52.722;6.440;2022-12-07T00:01:09;3.50;99.90
52675;DHT22;38569;52.722;6.440;2022-12-07T00:03:36;3.50;99.90
52675;DHT22;38569;52.722;6.440;2022-12-07T00:06:03;3.50;99.90
52675;DHT22;38569;52.722;6.440;2022-12-07T00:08:30;3.50;99.90
52675;DHT22;38569;52.722;6.440;2022-12-07T00:11:03;3.40;99.90
52675;DHT22;38569;52.722;6.440;2022-12-07T00:13:30;3.40;99.90
52675;DHT22;38569;52.722;6.440;2022-12-07T00:15:59;3.30;99.90
52675;DHT22;38569;52.722;6.440;2022-12-07T00:18:25;3.30;99.90
52675;DHT22;38569;52.722;6.440;2022-12-07T00:20:51;3.30;99.90
52675;DHT22;38569;52.722;6.440;2022-12-07T00:23:16;3.20;99.90
52675;DHT22;38569;52.722;6.440;2022-12-07T00:25:42;3.20;99.90
52675;DHT22;38569;52.722;6.440;2022-12-07T00:28:07;3.10;99.90
52675;DHT22;38569;52.722;6.440;2022-12-07T00:30:34;3.10;99.90
52675;DHT22;38569;52.722;6.440;2022-12-07T00:33:00;3.20;99.90
52675;DHT22;38569;52.722;6.440;2022-12-07T00:35:26;3.10;99.90
52675;DHT22;38569;52.722;6.440;2022-12-07T00:37:51;3.20;99.90
52675;DHT22;38569;52.722;6.440;2022-12-07T00:40:17;3.20;99.90
52675;DHT22;38569;52.722;6.440;2022-12-07T00:42:43;3.20;99.90
52675;DHT22;38569;52.722;6.440;2022-12-07T00:45:08;3.20;99.90
52675;DHT22;38569;52.722;6.440;2022-12-07T00:47:34;3.30;99.90
52675;DHT22;38569;52.722;6.440;2022-12-07T00:50:00;3.30;99.90
52675;DHT22;38569;52.722;6.440;2022-12-07T00:52:25;3.30;99.90
52675;DHT22;38569;52.722;6.440;2022-12-07T00:54:51;3.30;99.90
52675;DHT22;38569;52.722;6.440;2022-12-07T00:57:17;3.20;99.90
52675;DHT22;38569;52.722;6.440;2022-12-07T00:59:42;3.10;99.90
52675;DHT22;38569;52.722;6.440;2022-12-07T01:02:08;3.20;99.90
52675;DHT22;38569;52.722;6.440;2022-12-07T01:04:34;3.20;99.90
52675;DHT22;38569;52.722;6.440;2022-12-07T01:07:00;3.10;99.90
52675;DHT22;38569;52.722;6.440;2022-12-07T01:09:25;3.20;99.90
52675;DHT22;38569;52.722;6.440;2022-12-07T01:11:51;3.20;99.90
52675;DHT22;38569;52.722;6.440;2022-12-07T01:14:18;3.20;99.90
52675;DHT22;38569;52.722;6.440;2022-12-07T01:16:43;3.30;99.90
52675;DHT22;38569;52.722;6.440;2022-12-07T01:19:09;3.30;99.90
52675;DHT22;38569;52.722;6.440;2022-12-07T01:21:35;3.40;99.90
52675;DHT22;38569;52.722;6.440;2022-12-07T01:24:04;3.40;99.90
52675;DHT22;38569;52.722;6.440;2022-12-07T01:26:32;3.50;99.90
52675;DHT22;38569;52.722;6.440;2022-12-07T01:28:58;3.50;99.90
52675;DHT22;38569;52.722;6.440;2022-12-07T01:31:26;3.60;99.90
52675;DHT22;38569;52.722;6.440;2022-12-07T01:33:58;3.60;99.90
52675;DHT22;38569;52.722;6.440;2022-12-07T01:36:29;3.60;99.90
52675;DHT22;38569;52.722;6.440;2022-12-07T01:38:59;3.50;99.90
52675;DHT22;38569;52.722;6.440;2022-12-07T01:41:27;3.40;99.90
52675;DHT22;38569;52.722;6.440;2022-12-07T01:46:38;3.40;99.90
52675;DHT22;38569;52.722;6.440;2022-12-07T01:49:12;3.40;99.90
52675;DHT22;38569;52.722;6.440;2022-12-07T01:51:40;3.30;99.90
52675;DHT22;38569;52.722;6.440;2022-12-07T01:54:08;3.30;99.90
52675;DHT22;38569;52.722;6.440;2022-12-07T01:56:36;3.20;99.90
52675;DHT22;38569;52.722;6.440;2022-12-07T01:59:03;3.10;99.90
52675;DHT22;38569;52.722;6.440;2022-12-07T02:01:29;3.00;99.90
52675;DHT22;38569;52.722;6.440;2022-12-07T02:03:55;3.00;99.90
52675;DHT22;38569;52.722;6.440;2022-12-07T02:06:24;2.90;99.90
52675;DHT22;38569;52.722;6.440;2022-12-07T02:08:50;2.90;99.90
52675;DHT22;38569;52.722;6.440;2022-12-07T02:11:16;2.80;99.90
52675;DHT22;38569;52.722;6.440;2022-12-07T02:13:43;2.90;99.90
52675;DHT22;38569;52.722;6.440;2022-12-07T02:16:27;2.80;99.90
52675;DHT22;38569;52.722;6.440;2022-12-07T02:24:27;2.80;99.90
52675;DHT22;38569;52.722;6.440;2022-12-07T02:30:03;2.80;99.90
52675;DHT22;38569;52.722;6.440;2022-12-07T02:35:19;2.70;99.90
52675;DHT22;38569;52.722;6.440;2022-12-07T02:37:51;2.70;99.90
52675;DHT22;38569;52.722;6.440;2022-12-07T02:40:25;2.60;99.90
52675;DHT22;38569;52.722;6.440;2022-12-07T02:43:04;2.60;99.90
52675;DHT22;38569;52.722;6.440;2022-12-07T02:45:35;2.60;99.90
52675;DHT22;38569;52.722;6.440;2022-12-07T02:48:02;2.50;99.90
52675;DHT22;38569;52.722;6.440;2022-12-07T02:50:28;2.60;99.90
52675;DHT22;38569;52.722;6.440;2022-12-07T02:52:55;2.60;99.90
52675;DHT22;38569;52.722;6.440;2022-12-07T02:55:33;2.60;99.90
52675;DHT22;38569;52.722;6.440;2022-12-07T02:58:18;2.50;99.90
52675;DHT22;38569;52.722;6.440;2022-12-07T03:01:01;2.50;99.90
52675;DHT22;38569;52.722;6.440;2022-12-07T03:03:31;2.60;99.90
52675;DHT22;38569;52.722;6.440;2022-12-07T03:06:33;2.70;99.90
52675;DHT22;38569;52.722;6.440;2022-12-07T03:09:43;2.80;99.90
52675;DHT22;38569;52.722;6.440;2022-12-07T03:12:09;2.80;99.90
52675;DHT22;38569;52.722;6.440;2022-12-07T03:14:43;2.90;99.90
52675;DHT22;38569;52.722;6.440;2022-12-07T03:17:25;3.00;99.90
52675;DHT22;38569;52.722;6.440;2022-12-07T03:19:56;3.00;99.90
52675;DHT22;38569;52.722;6.440;2022-12-07T03:22:23;3.00;99.90
52675;DHT22;38569;52.722;6.440;2022-12-07T03:24:53;3.00;99.90
52675;DHT22;38569;52.722;6.440;2022-12-07T03:27:24;3.00;99.90
52675;DHT22;38569;52.722;6.440;2022-12-07T03:29:55;3.00;99.90
52675;DHT22;38569;52.722;6.440;2022-12-07T03:32:34;3.00;99.90
52675;DHT22;38569;52.722;6.440;2022-12-07T03:37:44;3.00;99.90
52675;DHT22;38569;52.722;6.440;2022-12-07T03:40:37;3.00;99.90
52675;DHT22;38569;52.722;6.440;2022-12-07T03:43:05;3.10;99.90
52675;DHT22;38569;52.722;6.440;2022-12-07T03:52:00;3.00;99.90
52675;DHT22;38569;52.722;6.440;2022-12-07T03:54:24;2.90;99.90
52675;DHT22;38569;52.722;6.440;2022-12-07T03:56:52;2.80;99.90
52675;DHT22;38569;52.722;6.440;2022-12-07T03:59:19;2.80;99.90
52675;DHT22;38569;52.722;6.440;2022-12-07T04:01:52;2.70;99.90
52675;DHT22;38569;52.722;6.440;2022-12-07T04:04:18;2.70;99.90
52675;DHT22;38569;52.722;6.440;2022-12-07T04:06:44;2.60;99.90
52675;DHT22;38569;52.722;6.440;2022-12-07T04:09:10;2.60;99.90
52675;DHT22;38569;52.722;6.440;2022-12-07T04:11:35;2.60;99.90
52675;DHT22;38569;52.722;6.440;2022-12-07T04:14:04;2.50;99.90
52675;DHT22;38569;52.722;6.440;2022-12-07T04:16:52;2.50;99.90
52675;DHT22;38569;52.722;6.440;2022-12-07T04:19:21;2.50;99.90
52675;DHT22;38569;52.722;6.440;2022-12-07T04:21:47;2.50;99.90
52675;DHT22;38569;52.722;6.440;2022-12-07T04:24:14;2.50;99.90
52675;DHT22;38569;52.722;6.440;2022-12-07T04:26:41;2.50;99.90
52675;DHT22;38569;52.722;6.440;2022-12-07T04:29:07;2.50;99.90
52675;DHT22;38569;52.722;6.440;2022-12-07T04:31:33;2.60;99.90
52675;DHT22;38569;52.722;6.440;2022-12-07T04:33:59;2.40;99.90
52675;DHT22;38569;52.722;6.440;2022-12-07T04:36:25;2.50;99.90
52675;DHT22;38569;52.722;6.440;2022-12-07T04:38:53;2.40;99.90
52675;DHT22;38569;52.722;6.440;2022-12-07T04:41:20;2.40;99.90
52675;DHT22;38569;52.722;6.440;2022-12-07T04:43:57;2.40;99.90
52675;DHT22;38569;52.722;6.440;2022-12-07T04:46:24;2.40;99.90
52675;DHT22;38569;52.722;6.440;2022-12-07T04:48:51;2.30;99.90
52675;DHT22;38569;52.722;6.440;2022-12-07T04:51:23;2.40;99.90
52675;DHT22;38569;52.722;6.440;2022-12-07T04:53:49;2.40;99.90
52675;DHT22;38569;52.722;6.440;2022-12-07T04:56:15;2.30;99.90
52675;DHT22;38569;52.722;6.440;2022-12-07T04:58:42;2.40;99.90
52675;DHT22;38569;52.722;6.440;2022-12-07T05:01:09;2.40;99.90
52675;DHT22;38569;52.722;6.440;2022-12-07T05:03:36;2.40;99.90
52675;DHT22;38569;52.722;6.440;2022-12-07T05:06:02;2.40;99.90
52675;DHT22;38569;52.722;6.440;2022-12-07T05:08:28;2.40;99.90
52675;DHT22;38569;52.722;6.440;2022-12-07T05:10:53;2.40;99.90
52675;DHT22;38569;52.722;6.440;2022-12-07T05:13:19;2.40;99.90
52675;DHT22;38569;52.722;6.440;2022-12-07T05:15:47;2.40;99.90
52675;DHT22;38569;52.722;6.440;2022-12-07T05:18:12;2.40;99.90
52675;DHT22;38569;52.722;6.440;2022-12-07T05:20:39;2.30;99.90
52675;DHT22;38569;52.722;6.440;2022-12-07T05:23:05;2.40;99.90
52675;DHT22;38569;52.722;6.440;2022-12-07T05:25:30;2.40;99.90
52675;DHT22;38569;52.722;6.440;2022-12-07T05:27:56;2.30;99.90
52675;DHT22;38569;52.722;6.440;2022-12-07T05:30:23;2.30;99.90
52675;DHT22;38569;52.722;6.440;2022-12-07T05:32:50;2.30;99.90
52675;DHT22;38569;52.722;6.440;2022-12-07T05:35:16;2.20;99.90
52675;DHT22;38569;52.722;6.440;2022-12-07T05:37:42;2.20;99.90
52675;DHT22;38569;52.722;6.440;2022-12-07T05:40:08;2.20;99.90
52675;DHT22;38569;52.722;6.440;2022-12-07T05:42:37;2.20;99.90
52675;DHT22;38569;52.722;6.440;2022-12-07T05:45:04;2.10;99.90
52675;DHT22;38569;52.722;6.440;2022-12-07T05:47:29;2.10;99.90
52675;DHT22;38569;52.722;6.440;2022-12-07T05:49:55;2.20;99.90
52675;DHT22;38569;52.722;6.440;2022-12-07T05:52:21;2.10;99.90
52675;DHT22;38569;52.722;6.440;2022-12-07T05:54:47;2.10;99.90
52675;DHT22;38569;52.722;6.440;2022-12-07T05:57:13;2.10;99.90
52675;DHT22;38569;52.722;6.440;2022-12-07T05:59:39;2.10;99.90
52675;DHT22;38569;52.722;6.440;2022-12-07T06:02:13;2.10;99.90
52675;DHT22;38569;52.722;6.440;2022-12-07T06:04:42;2.10;99.90
52675;DHT22;38569;52.722;6.440;2022-12-07T06:07:09;2.10;99.90
52675;DHT22;38569;52.722;6.440;2022-12-07T06:09:35;2.20;99.90
52675;DHT22;38569;52.722;6.440;2022-12-07T06:12:01;2.20;99.90
52675;DHT22;38569;52.722;6.440;2022-12-07T06:14:45;2.20;99.90
52675;DHT22;38569;52.722;6.440;2022-12-07T06:17:11;2.20;99.90
52675;DHT22;38569;52.722;6.440;2022-12-07T06:19:37;2.20;99.90
52675;DHT22;38569;52.722;6.440;2022-12-07T06:22:04;2.20;99.90
52675;DHT22;38569;52.722;6.440;2022-12-07T06:24:31;2.30;99.90
52675;DHT22;38569;52.722;6.440;2022-12-07T06:26:57;2.30;99.90
52675;DHT22;38569;52.722;6.440;2022-12-07T06:29:23;2.40;99.90
52675;DHT22;38569;52.722;6.440;2022-12-07T06:31:49;2.50;99.90
52675;DHT22;38569;52.722;6.440;2022-12-07T06:34:17;2.60;99.90
52675;DHT22;38569;52.722;6.440;2022-12-07T06:36:43;2.60;99.90
52675;DHT22;38569;52.722;6.440;2022-12-07T06:39:10;2.70;99.90
52675;DHT22;38569;52.722;6.440;2022-12-07T06:41:36;2.80;99.90
52675;DHT22;38569;52.722;6.440;2022-12-07T06:44:03;2.80;99.90
52675;DHT22;38569;52.722;6.440;2022-12-07T06:46:29;2.80;99.90
52675;DHT22;38569;52.722;6.440;2022-12-07T06:48:55;2.80;99.90
52675;DHT22;38569;52.722;6.440;2022-12-07T06:51:20;2.90;99.90
52675;DHT22;38569;52.722;6.440;2022-12-07T06:53:46;2.80;99.90
52675;DHT22;38569;52.722;6.440;2022-12-07T06:56:12;3.00;99.90
52675;DHT22;38569;52.722;6.440;2022-12-07T06:58:38;3.00;99.90
52675;DHT22;38569;52.722;6.440;2022-12-07T07:01:12;3.00;99.90
52675;DHT22;38569;52.722;6.440;2022-12-07T07:03:38;3.00;99.90
52675;DHT22;38569;52.722;6.440;2022-12-07T07:06:05;2.90;99.90
52675;DHT22;38569;52.722;6.440;2022-12-07T07:08:31;2.90;99.90
52675;DHT22;38569;52.722;6.440;2022-12-07T07:10:57;2.80;99.90
52675;DHT22;38569;52.722;6.440;2022-12-07T07:13:22;2.80;99.90
52675;DHT22;38569;52.722;6.440;2022-12-07T07:15:48;2.80;99.90
52675;DHT22;38569;52.722;6.440;2022-12-07T07:18:14;2.70;99.90
52675;DHT22;38569;52.722;6.440;2022-12-07T07:20:39;2.80;99.90
52675;DHT22;38569;52.722;6.440;2022-12-07T07:23:05;2.70;99.90
52675;DHT22;38569;52.722;6.440;2022-12-07T07:25:32;2.70;99.90
52675;DHT22;38569;52.722;6.440;2022-12-07T07:27:57;2.80;99.90
52675;DHT22;38569;52.722;6.440;2022-12-07T07:30:23;2.80;99.90
52675;DHT22;38569;52.722;6.440;2022-12-07T07:32:49;2.90;99.90
52675;DHT22;38569;52.722;6.440;2022-12-07T07:35:15;3.00;99.90
52675;DHT22;38569;52.722;6.440;2022-12-07T07:37:41;2.90;99.90
52675;DHT22;38569;52.722;6.440;2022-12-07T07:40:07;3.00;99.90
52675;DHT22;38569;52.722;6.440;2022-12-07T07:42:33;3.00;99.90
52675;DHT22;38569;52.722;6.440;2022-12-07T07:44:59;3.00;99.90
52675;DHT22;38569;52.722;6.440;2022-12-07T07:47:25;3.00;99.90
52675;DHT22;38569;52.722;6.440;2022-12-07T07:49:50;3.10;99.90
52675;DHT22;38569;52.722;6.440;2022-12-07T07:52:16;3.10;99.90
52675;DHT22;38569;52.722;6.440;2022-12-07T07:54:41;3.20;99.90
52675;DHT22;38569;52.722;6.440;2022-12-07T07:57:07;3.20;99.90
52675;DHT22;38569;52.722;6.440;2022-12-07T07:59:33;3.30;99.90
52675;DHT22;38569;52.722;6.440;2022-12-07T08:01:58;3.30;99.90
52675;DHT22;38569;52.722;6.440;2022-12-07T08:04:24;3.30;99.90
52675;DHT22;38569;52.722;6.440;2022-12-07T08:06:50;3.30;99.90
52675;DHT22;38569;52.722;6.440;2022-12-07T08:09:15;3.40;99.90
52675;DHT22;38569;52.722;6.440;2022-12-07T08:11:41;3.40;99.90
52675;DHT22;38569;52.722;6.440;2022-12-07T08:14:07;3.40;99.90
52675;DHT22;38569;52.722;6.440;2022-12-07T08:16:32;3.40;99.90
52675;DHT22;38569;52.722;6.440;2022-12-07T08:18:58;3.50;99.90
52675;DHT22;38569;52.722;6.440;2022-12-07T08:21:24;3.40;99.90
52675;DHT22;38569;52.722;6.440;2022-12-07T08:23:49;3.50;99.90
52675;DHT22;38569;52.722;6.440;2022-12-07T08:26:16;3.50;99.90
52675;DHT22;38569;52.722;6.440;2022-12-07T08:28:42;3.50;99.90
52675;DHT22;38569;52.722;6.440;2022-12-07T08:31:12;3.50;99.90
52675;DHT22;38569;52.722;6.440;2022-12-07T08:33:39;3.50;99.90
52675;DHT22;38569;52.722;6.440;2022-12-07T08:36:07;3.40;99.90
52675;DHT22;38569;52.722;6.440;2022-12-07T08:38:35;3.30;99.90
52675;DHT22;38569;52.722;6.440;2022-12-07T08:41:01;3.30;99.90
52675;DHT22;38569;52.722;6.440;2022-12-07T08:43:27;3.30;99.90
52675;DHT22;38569;52.722;6.440;2022-12-07T08:48:58;3.40;99.90
52675;DHT22;38569;52.722;6.440;2022-12-07T08:51:27;3.50;99.90
52675;DHT22;38569;52.722;6.440;2022-12-07T08:53:54;3.60;99.90
52675;DHT22;38569;52.722;6.440;2022-12-07T08:56:21;3.70;99.90
52675;DHT22;38569;52.722;6.440;2022-12-07T08:58:47;3.70;99.90
52675;DHT22;38569;52.722;6.440;2022-12-07T09:01:13;3.90;99.90
52675;DHT22;38569;52.722;6.440;2022-12-07T09:03:39;3.90;99.90
52675;DHT22;38569;52.722;6.440;2022-12-07T09:06:05;4.00;99.90
52675;DHT22;38569;52.722;6.440;2022-12-07T09:08:34;4.00;99.90
52675;DHT22;38569;52.722;6.440;2022-12-07T09:11:01;4.00;99.90
52675;DHT22;38569;52.722;6.440;2022-12-07T09:13:27;4.00;99.90
52675;DHT22;38569;52.722;6.440;2022-12-07T09:15:53;3.90;99.90
52675;DHT22;38569;52.722;6.440;2022-12-07T09:18:18;4.00;99.90
52675;DHT22;38569;52.722;6.440;2022-12-07T09:20:44;4.00;99.90
52675;DHT22;38569;52.722;6.440;2022-12-07T09:23:10;4.00;99.90
52675;DHT22;38569;52.722;6.440;2022-12-07T09:25:36;3.90;99.90
52675;DHT22;38569;52.722;6.440;2022-12-07T09:28:01;3.90;99.90
52675;DHT22;38569;52.722;6.440;2022-12-07T09:30:27;3.90;99.90
52675;DHT22;38569;52.722;6.440;2022-12-07T09:32:54;3.80;99.90
52675;DHT22;38569;52.722;6.440;2022-12-07T09:35:20;4.20;99.90
52675;DHT22;38569;52.722;6.440;2022-12-07T09:37:46;5.30;99.90
52675;DHT22;38569;52.722;6.440;2022-12-07T09:40:12;6.60;99.90
52675;DHT22;38569;52.722;6.440;2022-12-07T09:42:41;7.60;99.90
52675;DHT22;38569;52.722;6.440;2022-12-07T09:45:16;8.60;99.90
52675;DHT22;38569;52.722;6.440;2022-12-07T09:47:44;9.40;99.90
52675;DHT22;38569;52.722;6.440;2022-12-07T09:50:20;10.00;99.90
52675;DHT22;38569;52.722;6.440;2022-12-07T09:52:47;10.80;99.90
52675;DHT22;38569;52.722;6.440;2022-12-07T09:55:26;11.60;99.90
52675;DHT22;38569;52.722;6.440;2022-12-07T09:57:52;11.50;99.90
52675;DHT22;38569;52.722;6.440;2022-12-07T10:00:21;10.70;99.90
52675;DHT22;38569;52.722;6.440;2022-12-07T10:02:52;10.00;99.90
52675;DHT22;38569;52.722;6.440;2022-12-07T10:05:30;9.20;99.90
52675;DHT22;38569;52.722;6.440;2022-12-07T10:07:56;8.60;99.90
52675;DHT22;38569;52.722;6.440;2022-12-07T10:10:29;8.10;99.90
52675;DHT22;38569;52.722;6.440;2022-12-07T10:12:58;7.70;99.90
52675;DHT22;38569;52.722;6.440;2022-12-07T10:15:42;7.40;99.90
52675;DHT22;38569;52.722;6.440;2022-12-07T10:18:29;7.10;99.90
52675;DHT22;38569;52.722;6.440;2022-12-07T10:23:27;6.70;99.90
52675;DHT22;38569;52.722;6.440;2022-12-07T10:25:53;6.60;99.90
52675;DHT22;38569;52.722;6.440;2022-12-07T10:28:21;6.50;99.90
52675;DHT22;38569;52.722;6.440;2022-12-07T10:30:56;6.30;99.90
52675;DHT22;38569;52.722;6.440;2022-12-07T10:33:37;6.30;99.90
52675;DHT22;38569;52.722;6.440;2022-12-07T10:36:37;6.20;99.90
52675;DHT22;38569;52.722;6.440;2022-12-07T10:39:12;6.20;99.90
52675;DHT22;38569;52.722;6.440;2022-12-07T10:41:55;7.50;99.90
52675;DHT22;38569;52.722;6.440;2022-12-07T10:44:24;8.60;99.90
52675;DHT22;38569;52.722;6.440;2022-12-07T11:00:25;9.30;99.90
52675;DHT22;38569;52.722;6.440;2022-12-07T11:03:20;9.10;99.90
52675;DHT22;38569;52.722;6.440;2022-12-07T11:06:32;8.80;99.90
52675;DHT22;38569;52.722;6.440;2022-12-07T11:11:36;7.90;99.90
52675;DHT22;38569;52.722;6.440;2022-12-07T11:17:12;7.60;99.90
52675;DHT22;38569;52.722;6.440;2022-12-07T11:19:47;7.70;99.90
52675;DHT22;38569;52.722;6.440;2022-12-07T11:22:28;7.70;99.90
52675;DHT22;38569;52.722;6.440;2022-12-07T11:25:17;7.50;99.90
52675;DHT22;38569;52.722;6.440;2022-12-07T11:30:23;7.30;99.90
52675;DHT22;38569;52.722;6.440;2022-12-07T11:33:05;7.60;99.90
52675;DHT22;38569;52.722;6.440;2022-12-07T11:38:26;7.90;99.90
52675;DHT22;38569;52.722;6.440;2022-12-07T11:40:58;8.10;99.90
52675;DHT22;38569;52.722;6.440;2022-12-07T11:43:49;8.30;99.90
52675;DHT22;38569;52.722;6.440;2022-12-07T11:46:17;8.40;99.90
52675;DHT22;38569;52.722;6.440;2022-12-07T11:49:19;8.20;99.90
52675;DHT22;38569;52.722;6.440;2022-12-07T11:51:50;8.10;99.90
52675;DHT22;38569;52.722;6.440;2022-12-07T11:54:19;8.10;99.90
52675;DHT22;38569;52.722;6.440;2022-12-07T11:56:50;8.00;99.90
52675;DHT22;38569;52.722;6.440;2022-12-07T11:59:25;8.00;99.90
52675;DHT22;38569;52.722;6.440;2022-12-07T12:02:16;7.80;99.90
52675;DHT22;38569;52.722;6.440;2022-12-07T12:04:50;7.60;99.90
52675;DHT22;38569;52.722;6.440;2022-12-07T12:07:26;7.60;99.90
52675;DHT22;38569;52.722;6.440;2022-12-07T12:09:59;7.70;99.90
52675;DHT22;38569;52.722;6.440;2022-12-07T12:12:45;7.60;99.90
52675;DHT22;38569;52.722;6.440;2022-12-07T12:21:10;7.40;99.90
52675;DHT22;38569;52.722;6.440;2022-12-07T12:26:08;7.70;99.90
52675;DHT22;38569;52.722;6.440;2022-12-07T12:28:54;7.80;99.90
52675;DHT22;38569;52.722;6.440;2022-12-07T12:33:57;8.40;99.90
52675;DHT22;38569;52.722;6.440;2022-12-07T12:36:26;8.40;99.90
52675;DHT22;38569;52.722;6.440;2022-12-07T12:46:55;8.20;99.90
52675;DHT22;38569;52.722;6.440;2022-12-07T12:54:38;7.80;99.90
52675;DHT22;38569;52.722;6.440;2022-12-07T12:57:27;7.80;99.90
52675;DHT22;38569;52.722;6.440;2022-12-07T13:02:22;7.80;99.90
52675;DHT22;38569;52.722;6.440;2022-12-07T13:04:56;7.80;99.90
52675;DHT22;38569;52.722;6.440;2022-12-07T13:15:54;7.40;99.90
52675;DHT22;38569;52.722;6.440;2022-12-07T13:18:37;7.30;99.90
52675;DHT22;38569;52.722;6.440;2022-12-07T13:31:43;7.40;99.90
52675;DHT22;38569;52.722;6.440;2022-12-07T13:36:58;7.40;99.90
52675;DHT22;38569;52.722;6.440;2022-12-07T13:39:26;7.40;99.90
52675;DHT22;38569;52.722;6.440;2022-12-07T13:41:56;7.40;99.90
52675;DHT22;38569;52.722;6.440;2022-12-07T13:44:25;7.30;99.90
52675;DHT22;38569;52.722;6.440;2022-12-07T13:47:34;7.20;99.90
52675;DHT22;38569;52.722;6.440;2022-12-07T13:50:01;7.10;99.90
52675;DHT22;38569;52.722;6.440;2022-12-07T13:52:28;7.00;99.90
52675;DHT22;38569;52.722;6.440;2022-12-07T13:57:33;6.60;99.90
52675;DHT22;38569;52.722;6.440;2022-12-07T14:00:02;6.40;99.90
52675;DHT22;38569;52.722;6.440;2022-12-07T14:02:31;6.30;99.90
52675;DHT22;38569;52.722;6.440;2022-12-07T14:05:22;6.10;99.90
52675;DHT22;38569;52.722;6.440;2022-12-07T14:07:57;6.10;99.90
52675;DHT22;38569;52.722;6.440;2022-12-07T14:10:27;6.10;99.90
52675;DHT22;38569;52.722;6.440;2022-12-07T14:12:53;6.10;99.90
52675;DHT22;38569;52.722;6.440;2022-12-07T14:15:31;6.10;99.90
52675;DHT22;38569;52.722;6.440;2022-12-07T14:17:58;6.10;99.90
52675;DHT22;38569;52.722;6.440;2022-12-07T14:20:36;6.20;99.90
52675;DHT22;38569;52.722;6.440;2022-12-07T14:23:03;6.10;99.90
52675;DHT22;38569;52.722;6.440;2022-12-07T14:26:03;6.10;99.90
52675;DHT22;38569;52.722;6.440;2022-12-07T14:28:34;6.10;99.90
52675;DHT22;38569;52.722;6.440;2022-12-07T14:31:00;6.00;99.90
52675;DHT22;38569;52.722;6.440;2022-12-07T14:33:27;6.00;99.90
52675;DHT22;38569;52.722;6.440;2022-12-07T14:35:53;5.90;99.90
52675;DHT22;38569;52.722;6.440;2022-12-07T14:38:24;5.90;99.90
52675;DHT22;38569;52.722;6.440;2022-12-07T14:40:51;5.80;99.90
52675;DHT22;38569;52.722;6.440;2022-12-07T14:43:19;5.70;99.90
52675;DHT22;38569;52.722;6.440;2022-12-07T14:45:45;5.70;99.90
52675;DHT22;38569;52.722;6.440;2022-12-07T14:48:12;5.60;99.90
52675;DHT22;38569;52.722;6.440;2022-12-07T14:50:44;5.60;99.90
52675;DHT22;38569;52.722;6.440;2022-12-07T14:53:16;5.50;99.90
52675;DHT22;38569;52.722;6.440;2022-12-07T14:55:42;5.40;99.90
52675;DHT22;38569;52.722;6.440;2022-12-07T14:58:14;5.30;99.90
52675;DHT22;38569;52.722;6.440;2022-12-07T15:00:40;5.30;99.90
52675;DHT22;38569;52.722;6.440;2022-12-07T15:03:05;5.10;99.90
52675;DHT22;38569;52.722;6.440;2022-12-07T15:05:31;5.10;99.90
52675;DHT22;38569;52.722;6.440;2022-12-07T15:07:58;5.00;99.90
52675;DHT22;38569;52.722;6.440;2022-12-07T15:10:29;5.00;99.90
52675;DHT22;38569;52.722;6.440;2022-12-07T15:13:01;5.00;99.90
52675;DHT22;38569;52.722;6.440;2022-12-07T15:15:47;5.00;99.90
52675;DHT22;38569;52.722;6.440;2022-12-07T15:18:14;5.10;99.90
52675;DHT22;38569;52.722;6.440;2022-12-07T15:20:40;5.20;99.90
52675;DHT22;38569;52.722;6.440;2022-12-07T15:23:05;5.20;99.90
52675;DHT22;38569;52.722;6.440;2022-12-07T15:25:31;5.10;99.90
52675;DHT22;38569;52.722;6.440;2022-12-07T15:27:57;5.10;99.90
52675;DHT22;38569;52.722;6.440;2022-12-07T15:30:23;5.00;99.90
52675;DHT22;38569;52.722;6.440;2022-12-07T15:32:52;4.90;99.90
52675;DHT22;38569;52.722;6.440;2022-12-07T15:35:18;4.90;99.90
52675;DHT22;38569;52.722;6.440;2022-12-07T15:37:44;4.80;99.90
52675;DHT22;38569;52.722;6.440;2022-12-07T15:40:10;4.80;99.90
52675;DHT22;38569;52.722;6.440;2022-12-07T15:42:36;4.70;99.90
52675;DHT22;38569;52.722;6.440;2022-12-07T15:45:04;4.60;99.90
52675;DHT22;38569;52.722;6.440;2022-12-07T15:47:41;4.60;99.90
52675;DHT22;38569;52.722;6.440;2022-12-07T15:50:16;4.60;99.90
52675;DHT22;38569;52.722;6.440;2022-12-07T15:52:42;4.50;99.90
52675;DHT22;38569;52.722;6.440;2022-12-07T15:55:09;4.50;99.90
52675;DHT22;38569;52.722;6.440;2022-12-07T15:57:36;4.50;99.90
52675;DHT22;38569;52.722;6.440;2022-12-07T16:00:04;4.40;99.90
52675;DHT22;38569;52.722;6.440;2022-12-07T16:02:30;4.40;99.90
52675;DHT22;38569;52.722;6.440;2022-12-07T16:04:55;4.30;99.90
52675;DHT22;38569;52.722;6.440;2022-12-07T16:07:21;4.20;99.90
52675;DHT22;38569;52.722;6.440;2022-12-07T16:09:47;4.20;99.90
52675;DHT22;38569;52.722;6.440;2022-12-07T16:12:15;4.10;99.90
52675;DHT22;38569;52.722;6.440;2022-12-07T16:14:41;4.10;99.90
52675;DHT22;38569;52.722;6.440;2022-12-07T16:17:08;4.00;99.90
52675;DHT22;38569;52.722;6.440;2022-12-07T16:19:35;3.90;99.90
52675;DHT22;38569;52.722;6.440;2022-12-07T16:22:01;3.90;99.90
52675;DHT22;38569;52.722;6.440;2022-12-07T16:24:27;3.90;99.90
52675;DHT22;38569;52.722;6.440;2022-12-07T16:26:54;3.80;99.90
52675;DHT22;38569;52.722;6.440;2022-12-07T16:29:21;3.80;99.90
52675;DHT22;38569;52.722;6.440;2022-12-07T16:31:48;3.90;99.90
52675;DHT22;38569;52.722;6.440;2022-12-07T16:34:14;3.90;99.90
52675;DHT22;38569;52.722;6.440;2022-12-07T16:36:40;3.90;99.90
52675;DHT22;38569;52.722;6.440;2022-12-07T16:39:06;3.90;99.90
52675;DHT22;38569;52.722;6.440;2022-12-07T16:41:32;3.90;99.90
52675;DHT22;38569;52.722;6.440;2022-12-07T16:44:03;3.90;99.90
52675;DHT22;38569;52.722;6.440;2022-12-07T16:46:29;4.00;99.90
52675;DHT22;38569;52.722;6.440;2022-12-07T16:48:55;3.90;99.90
52675;DHT22;38569;52.722;6.440;2022-12-07T16:51:21;3.90;99.90
52675;DHT22;38569;52.722;6.440;2022-12-07T16:53:46;3.90;99.90
52675;DHT22;38569;52.722;6.440;2022-12-07T16:56:14;3.80;99.90
52675;DHT22;38569;52.722;6.440;2022-12-07T16:58:41;3.90;99.90
52675;DHT22;38569;52.722;6.440;2022-12-07T17:01:21;3.90;99.90
52675;DHT22;38569;52.722;6.440;2022-12-07T17:03:52;3.90;99.90
52675;DHT22;38569;52.722;6.440;2022-12-07T17:06:20;3.90;99.90
52675;DHT22;38569;52.722;6.440;2022-12-07T17:08:47;4.00;99.90
52675;DHT22;38569;52.722;6.440;2022-12-07T17:11:16;3.90;99.90
52675;DHT22;38569;52.722;6.440;2022-12-07T17:13:42;3.90;99.90
52675;DHT22;38569;52.722;6.440;2022-12-07T17:16:26;3.90;99.90
52675;DHT22;38569;52.722;6.440;2022-12-07T17:18:52;3.90;99.90
52675;DHT22;38569;52.722;6.440;2022-12-07T17:21:18;3.90;99.90
52675;DHT22;38569;52.722;6.440;2022-12-07T17:23:44;3.90;99.90
52675;DHT22;38569;52.722;6.440;2022-12-07T17:26:13;3.90;99.90
52675;DHT22;38569;52.722;6.440;2022-12-07T17:28:40;3.80;99.90
52675;DHT22;38569;52.722;6.440;2022-12-07T17:31:07;3.90;99.90
52675;DHT22;38569;52.722;6.440;2022-12-07T17:33:33;3.90;99.90
52675;DHT22;38569;52.722;6.440;2022-12-07T17:36:00;3.80;99.90
52675;DHT22;38569;52.722;6.440;2022-12-07T17:38:27;3.80;99.90
52675;DHT22;38569;52.722;6.440;2022-12-07T17:40:53;3.90;99.90
52675;DHT22;38569;52.722;6.440;2022-12-07T17:43:19;3.80;99.90